Time;durP1;ratioP1;P1;durP2;ratioP2;P2;SDS_P1;SDS_P2;PMS_P1;PMS_P2;Temp;Humidity;BMP_temperature;BMP_pressure;BME280_temperature;BME280_humidity;BME280_pressure;Samples;Min_cycle;Max_cycle;Signal;HPM_P1;HPM_P2
2021/12/21 00:00:37;;;;;;;0.10;0.10;;;-0.10;99.90;;;;;;5063718;28;20570;-85
2021/12/21 00:03:03;;;;;;;0.20;0.10;;;-0.10;99.90;;;;;;5065267;28;20173;-84
2021/12/21 00:05:29;;;;;;;2.43;0.20;;;-0.10;99.90;;;;;;5066205;28;20184;-84
2021/12/21 00:07:58;;;;;;;0.10;0.10;;;-0.10;99.90;;;;;;5063084;28;20181;-84
2021/12/21 00:10:27;;;;;;;0.20;0.20;;;0.00;99.90;;;;;;5066140;28;20225;-83
2021/12/21 00:15:36;;;;;;;0.00;0.00;;;0.00;99.90;;;;;;5066553;28;20177;-85
2021/12/21 00:21:00;;;;;;;0.40;0.40;;;0.00;99.90;;;;;;5066622;28;20251;-85
2021/12/21 00:25:56;;;;;;;0.00;0.00;;;0.00;99.90;;;;;;5066980;28;20646;-85
2021/12/21 00:28:23;;;;;;;0.03;0.03;;;0.00;99.90;;;;;;5065061;28;20265;-85
2021/12/21 00:30:49;;;;;;;0.10;0.10;;;0.10;99.90;;;;;;5080951;28;20201;-85
2021/12/21 00:33:15;;;;;;;0.20;0.20;;;0.10;99.90;;;;;;5065527;28;20235;-84
2021/12/21 00:35:40;;;;;;;0.00;0.00;;;0.20;99.90;;;;;;5065301;28;20193;-85
2021/12/21 00:38:06;;;;;;;0.50;0.10;;;0.30;99.90;;;;;;5063233;28;20189;-84
2021/12/21 00:40:32;;;;;;;0.10;0.10;;;0.30;99.90;;;;;;5064271;28;20265;-85
2021/12/21 00:42:57;;;;;;;0.10;0.10;;;0.30;99.90;;;;;;5061632;28;20266;-85
2021/12/21 00:45:23;;;;;;;0.57;0.17;;;0.40;99.90;;;;;;5065000;28;20173;-84
2021/12/21 00:47:49;;;;;;;0.57;0.57;;;0.40;99.90;;;;;;5064270;28;20191;-85
2021/12/21 00:50:18;;;;;;;0.00;0.00;;;0.40;99.90;;;;;;5063628;28;20232;-84
2021/12/21 00:52:46;;;;;;;0.10;0.10;;;0.50;99.90;;;;;;5064669;28;20181;-85
2021/12/21 00:55:11;;;;;;;0.40;0.20;;;0.50;99.90;;;;;;5065196;28;20906;-85
2021/12/21 00:57:37;;;;;;;0.00;0.00;;;0.40;99.90;;;;;;5066142;28;20275;-84
2021/12/21 01:00:05;;;;;;;0.10;0.10;;;0.40;99.90;;;;;;5061553;28;20216;-85
2021/12/21 01:02:32;;;;;;;0.10;0.10;;;0.30;99.90;;;;;;5063687;28;20663;-84
2021/12/21 01:04:58;;;;;;;0.40;0.13;;;0.30;99.90;;;;;;5062121;28;20177;-83
2021/12/21 01:07:33;;;;;;;0.27;0.27;;;0.30;99.90;;;;;;5064681;28;20188;-85
2021/12/21 01:10:27;;;;;;;0.10;0.10;;;0.30;99.90;;;;;;5065249;28;20218;-85
2021/12/21 01:13:10;;;;;;;0.57;0.30;;;0.30;99.90;;;;;;5066168;28;20268;-85
2021/12/21 01:15:57;;;;;;;0.00;0.00;;;0.30;99.90;;;;;;5061110;28;20190;-85
2021/12/21 01:18:30;;;;;;;0.13;0.13;;;0.20;99.90;;;;;;5064768;28;20252;-84
2021/12/21 01:34:05;;;;;;;0.03;0.03;;;0.50;99.90;;;;;;5066639;28;20190;-84
2021/12/21 01:36:45;;;;;;;0.10;0.10;;;0.50;99.90;;;;;;5059897;28;20184;-85
2021/12/21 01:39:29;;;;;;;0.10;0.10;;;0.50;99.90;;;;;;5061738;28;20233;-84
2021/12/21 01:42:02;;;;;;;0.70;0.70;;;0.50;99.90;;;;;;5062514;28;20670;-85
2021/12/21 01:49:57;;;;;;;0.00;0.00;;;0.50;99.90;;;;;;5069712;28;20265;-84
2021/12/21 01:52:25;;;;;;;0.10;0.10;;;0.60;99.90;;;;;;5064476;28;21083;-85
2021/12/21 01:54:51;;;;;;;0.10;0.10;;;0.60;99.90;;;;;;5067267;28;20285;-85
2021/12/21 01:57:17;;;;;;;0.10;0.10;;;0.50;99.90;;;;;;5067499;28;20674;-85
2021/12/21 01:59:44;;;;;;;0.20;0.20;;;0.50;99.90;;;;;;5065709;28;20274;-84
2021/12/21 02:02:12;;;;;;;0.00;0.00;;;0.50;99.90;;;;;;5068151;28;20181;-84
2021/12/21 02:04:39;;;;;;;0.20;0.20;;;0.60;99.90;;;;;;5071883;28;20193;-85
2021/12/21 02:07:06;;;;;;;0.10;0.10;;;0.50;99.90;;;;;;5069953;28;20185;-84
2021/12/21 02:09:38;;;;;;;0.20;0.20;;;0.50;99.90;;;;;;5070325;28;20184;-85
2021/12/21 02:12:13;;;;;;;0.20;0.20;;;0.60;99.90;;;;;;5066089;28;20189;-84
2021/12/21 02:14:41;;;;;;;0.10;0.10;;;0.60;99.90;;;;;;5070958;28;20239;-85
2021/12/21 02:20:01;;;;;;;0.00;0.00;;;0.50;99.90;;;;;;5072581;28;20228;-84
2021/12/21 02:22:31;;;;;;;0.17;0.17;;;0.60;99.90;;;;;;5070663;28;20169;-84
2021/12/21 02:27:43;;;;;;;0.10;0.10;;;0.60;99.90;;;;;;5074615;28;20270;-83
2021/12/21 02:30:14;;;;;;;0.10;0.10;;;0.60;99.90;;;;;;5066931;28;20231;-85
2021/12/21 02:32:40;;;;;;;0.50;0.50;;;0.50;99.90;;;;;;5069526;28;20189;-85
2021/12/21 02:35:07;;;;;;;0.30;0.30;;;0.60;99.90;;;;;;5070052;28;20186;-85
2021/12/21 02:37:32;;;;;;;0.00;0.00;;;0.60;99.90;;;;;;5071450;28;20677;-85
2021/12/21 02:39:58;;;;;;;0.10;0.10;;;0.50;99.90;;;;;;5071349;28;20227;-84
2021/12/21 02:42:23;;;;;;;0.10;0.10;;;0.50;99.90;;;;;;5068474;28;20189;-85
2021/12/21 02:44:49;;;;;;;0.10;0.10;;;0.40;99.90;;;;;;5067148;28;20177;-86
2021/12/21 02:47:15;;;;;;;0.10;0.10;;;0.40;99.90;;;;;;5069494;28;20185;-85
2021/12/21 02:49:41;;;;;;;0.10;0.10;;;0.30;99.90;;;;;;5063626;28;20254;-85
2021/12/21 02:52:06;;;;;;;0.10;0.10;;;0.40;99.90;;;;;;5067679;28;20245;-83
2021/12/21 02:54:32;;;;;;;0.20;0.20;;;0.30;99.90;;;;;;5069266;28;20189;-84
2021/12/21 02:56:58;;;;;;;0.10;0.10;;;0.30;99.90;;;;;;5068723;28;21200;-85
2021/12/21 02:59:23;;;;;;;0.10;0.10;;;0.30;99.90;;;;;;5063330;28;20217;-85
2021/12/21 03:01:49;;;;;;;0.10;0.10;;;0.30;99.90;;;;;;5066779;28;20553;-85
2021/12/21 03:04:14;;;;;;;0.17;0.17;;;0.50;99.90;;;;;;5060601;28;20203;-85
2021/12/21 03:11:57;;;;;;;0.10;0.10;;;0.40;99.90;;;;;;5068330;28;20181;-83
2021/12/21 03:14:23;;;;;;;0.47;0.33;;;0.40;99.90;;;;;;5067557;28;20565;-85
2021/12/21 03:16:50;;;;;;;0.10;0.10;;;0.40;99.90;;;;;;5067513;28;20646;-84
2021/12/21 03:19:16;;;;;;;0.10;0.10;;;0.20;99.90;;;;;;5069318;28;20386;-84
2021/12/21 03:21:42;;;;;;;0.20;0.20;;;0.30;99.90;;;;;;5065858;28;20197;-85
2021/12/21 03:24:08;;;;;;;0.17;0.13;;;0.20;99.90;;;;;;5063774;28;20199;-84
2021/12/21 03:26:34;;;;;;;0.13;0.13;;;0.00;99.90;;;;;;5066990;28;20207;-84
2021/12/21 03:29:00;;;;;;;0.10;0.10;;;-0.10;99.90;;;;;;5065068;28;20250;-85
2021/12/21 03:31:26;;;;;;;0.10;0.10;;;-0.10;99.90;;;;;;5069725;28;20275;-84
2021/12/21 03:33:51;;;;;;;0.10;0.10;;;-0.10;99.90;;;;;;5063582;28;20196;-84
2021/12/21 03:36:18;;;;;;;0.53;0.37;;;-0.30;99.90;;;;;;5067068;28;20189;-84
2021/12/21 03:38:53;;;;;;;0.00;0.00;;;-0.20;99.90;;;;;;5066121;28;20189;-85
2021/12/21 03:41:19;;;;;;;0.00;0.00;;;-0.20;99.90;;;;;;5065042;28;20203;-85
2021/12/21 03:43:46;;;;;;;0.20;0.13;;;-0.20;99.90;;;;;;5065064;28;20177;-84
2021/12/21 03:46:14;;;;;;;1.03;0.27;;;-0.10;99.90;;;;;;5068514;28;20650;-85
2021/12/21 03:48:42;;;;;;;0.00;0.00;;;0.00;99.90;;;;;;5064481;28;20246;-85
2021/12/21 03:51:08;;;;;;;0.10;0.10;;;0.00;99.90;;;;;;5067638;28;20727;-85
2021/12/21 03:53:34;;;;;;;0.10;0.10;;;0.00;99.90;;;;;;5067064;28;20264;-84
2021/12/21 03:58:44;;;;;;;0.00;0.00;;;-0.20;99.90;;;;;;5067409;28;20197;-85
2021/12/21 04:01:10;;;;;;;0.37;0.33;;;-0.50;99.90;;;;;;5069525;28;20216;-84
2021/12/21 04:03:35;;;;;;;0.03;0.03;;;-0.30;99.90;;;;;;5063193;28;20181;-84
2021/12/21 04:06:01;;;;;;;0.20;0.20;;;-0.20;99.90;;;;;;5067510;28;20176;-84
2021/12/21 04:08:27;;;;;;;0.10;0.10;;;-0.10;99.90;;;;;;5065481;28;20189;-85
2021/12/21 04:10:52;;;;;;;0.10;0.10;;;0.00;99.90;;;;;;5067985;28;20618;-84
2021/12/21 04:13:18;;;;;;;0.23;0.23;;;0.00;99.90;;;;;;5067312;28;20184;-84
2021/12/21 04:15:44;;;;;;;5.00;0.27;;;0.00;99.90;;;;;;5063185;28;20184;-85
2021/12/21 04:18:13;;;;;;;0.10;0.10;;;0.00;99.90;;;;;;5063710;28;20238;-84
2021/12/21 04:20:40;;;;;;;0.10;0.10;;;-0.10;99.90;;;;;;5065781;28;20216;-85
2021/12/21 04:23:06;;;;;;;0.00;0.00;;;-0.50;99.90;;;;;;5060502;28;20595;-85
2021/12/21 04:25:33;;;;;;;0.10;0.10;;;-0.50;99.90;;;;;;5062795;28;20177;-85
2021/12/21 04:27:58;;;;;;;0.10;0.10;;;-0.50;99.90;;;;;;5065623;28;20181;-84
2021/12/21 04:30:24;;;;;;;0.00;0.00;;;-0.60;99.90;;;;;;5065745;28;20199;-84
2021/12/21 04:32:50;;;;;;;0.10;0.10;;;-0.60;99.90;;;;;;5063182;28;20272;-84
2021/12/21 04:35:19;;;;;;;0.00;0.00;;;-0.60;99.90;;;;;;5065264;28;20177;-85
2021/12/21 04:37:50;;;;;;;0.10;0.10;;;-0.60;99.90;;;;;;5059487;28;20595;-86
2021/12/21 04:40:19;;;;;;;0.23;0.23;;;-0.50;99.90;;;;;;5063466;28;20299;-85
2021/12/21 04:42:44;;;;;;;0.07;0.07;;;-0.50;99.90;;;;;;5066001;28;20220;-84
2021/12/21 04:45:10;;;;;;;0.10;0.10;;;-0.50;99.90;;;;;;5059477;28;20208;-85
2021/12/21 04:47:35;;;;;;;0.23;0.23;;;-0.50;99.90;;;;;;5067109;28;20200;-84
2021/12/21 04:50:01;;;;;;;0.33;0.33;;;-0.60;99.90;;;;;;5063608;28;20209;-84
2021/12/21 04:52:26;;;;;;;0.10;0.10;;;-0.50;99.90;;;;;;5060690;28;20294;-84
2021/12/21 04:54:52;;;;;;;0.00;0.00;;;-0.50;99.90;;;;;;5061183;28;20204;-85
2021/12/21 04:57:18;;;;;;;0.10;0.10;;;-0.50;99.90;;;;;;5061683;28;20580;-85
2021/12/21 04:59:43;;;;;;;0.10;0.10;;;-0.50;99.90;;;;;;5063875;28;20215;-84
2021/12/21 05:02:09;;;;;;;0.00;0.00;;;-0.50;99.90;;;;;;5062539;28;20189;-84
2021/12/21 05:04:37;;;;;;;0.10;0.10;;;-0.50;99.90;;;;;;5065214;28;20196;-85
2021/12/21 05:07:03;;;;;;;0.10;0.10;;;-0.50;99.90;;;;;;5065146;28;20201;-85
2021/12/21 05:09:37;;;;;;;0.27;0.27;;;-0.40;99.90;;;;;;5063471;28;20258;-84
2021/12/21 05:12:05;;;;;;;0.10;0.10;;;-0.30;99.90;;;;;;5064692;28;20210;-85
2021/12/21 05:14:31;;;;;;;0.20;0.20;;;-0.30;99.90;;;;;;5060271;28;20208;-85
2021/12/21 05:16:56;;;;;;;0.00;0.00;;;-0.30;99.90;;;;;;5066883;28;20225;-85
2021/12/21 05:19:22;;;;;;;0.10;0.10;;;-0.40;99.90;;;;;;5063743;28;20211;-84
2021/12/21 05:21:47;;;;;;;0.00;0.00;;;-0.50;99.90;;;;;;5062250;28;20652;-84
2021/12/21 05:24:13;;;;;;;0.10;0.10;;;-0.50;99.90;;;;;;5062434;28;20185;-85
2021/12/21 05:26:38;;;;;;;0.00;0.00;;;-0.50;99.90;;;;;;5064780;28;20184;-85
2021/12/21 05:29:04;;;;;;;0.10;0.10;;;-0.50;99.90;;;;;;5061034;28;20192;-84
2021/12/21 05:31:30;;;;;;;0.10;0.10;;;-0.50;99.90;;;;;;5064812;28;20223;-85
2021/12/21 05:33:55;;;;;;;0.00;0.00;;;-0.50;99.90;;;;;;5058738;28;20266;-85
2021/12/21 05:36:22;;;;;;;0.10;0.10;;;-0.50;99.90;;;;;;5060377;28;20234;-85
2021/12/21 05:38:52;;;;;;;0.10;0.10;;;-0.50;99.90;;;;;;5067022;28;20226;-84
2021/12/21 05:41:25;;;;;;;0.47;0.47;;;-0.40;99.90;;;;;;5063859;28;20285;-84
2021/12/21 05:43:58;;;;;;;0.17;0.17;;;-0.40;99.90;;;;;;5069707;28;20437;-86
2021/12/21 05:46:23;;;;;;;0.10;0.10;;;-0.40;99.90;;;;;;5084410;28;20192;-84
2021/12/21 05:48:51;;;;;;;0.40;0.40;;;-0.50;99.90;;;;;;5068040;28;20568;-84
2021/12/21 05:51:18;;;;;;;0.30;0.30;;;-0.50;99.90;;;;;;5067149;28;20209;-84
2021/12/21 05:53:44;;;;;;;0.20;0.20;;;-0.60;99.90;;;;;;5067234;28;20272;-84
2021/12/21 05:56:09;;;;;;;0.10;0.10;;;-0.70;99.90;;;;;;5064657;28;20367;-85
2021/12/21 05:58:35;;;;;;;0.23;0.23;;;-0.70;99.90;;;;;;5069150;28;20305;-84
2021/12/21 06:01:00;;;;;;;0.10;0.10;;;-0.80;99.90;;;;;;5068138;28;20219;-84
2021/12/21 06:03:26;;;;;;;0.40;0.40;;;-0.80;99.90;;;;;;5071953;28;20177;-84
2021/12/21 06:05:52;;;;;;;0.50;0.30;;;-0.80;99.90;;;;;;5068282;28;20181;-84
2021/12/21 06:08:21;;;;;;;0.10;0.10;;;-0.80;99.90;;;;;;5066058;28;20185;-84
2021/12/21 06:10:47;;;;;;;0.10;0.10;;;-0.90;99.90;;;;;;5067684;28;20209;-84
2021/12/21 06:13:42;;;;;;;0.30;0.30;;;-1.00;99.90;;;;;;5067605;28;20181;-84
2021/12/21 06:24:56;;;;;;;0.20;0.20;;;-1.10;99.90;;;;;;5069668;28;20666;-81
2021/12/21 06:26:45;;;;;;;0.10;0.10;;;-0.90;99.90;;;;;;5068212;28;20250;-85
2021/12/21 06:29:10;;;;;;;0.10;0.10;;;-0.90;99.90;;;;;;5063758;28;20275;-84
2021/12/21 06:31:38;;;;;;;0.10;0.10;;;-0.90;99.90;;;;;;5070010;28;20278;-83
2021/12/21 06:34:04;;;;;;;0.17;0.17;;;-0.90;99.90;;;;;;5070516;28;20185;-84
2021/12/21 06:36:29;;;;;;;0.13;0.13;;;-0.90;99.90;;;;;;5070208;28;20917;-84
2021/12/21 06:38:55;;;;;;;0.13;0.13;;;-0.90;99.90;;;;;;5068332;28;20181;-84
2021/12/21 06:41:21;;;;;;;0.40;0.40;;;-0.90;99.90;;;;;;5067911;28;20307;-85
2021/12/21 06:43:47;;;;;;;0.33;0.33;;;-0.80;99.90;;;;;;5070105;28;20193;-84
2021/12/21 06:46:29;;;;;;;0.10;0.10;;;-0.80;99.90;;;;;;5065151;28;20285;-81
2021/12/21 06:51:48;;;;;;;1.70;0.57;;;-0.90;99.90;;;;;;5068666;28;21268;-82
2021/12/21 06:54:14;;;;;;;0.10;0.10;;;-1.00;99.90;;;;;;5063547;28;20184;-84
2021/12/21 06:56:39;;;;;;;0.10;0.10;;;-1.00;99.90;;;;;;5059922;28;20185;-84
2021/12/21 06:59:05;;;;;;;0.10;0.10;;;-1.00;99.90;;;;;;5065464;28;20217;-84
2021/12/21 07:01:32;;;;;;;0.10;0.10;;;-1.10;99.90;;;;;;5061875;28;20200;-85
2021/12/21 07:03:58;;;;;;;0.20;0.20;;;-1.20;99.90;;;;;;5065097;28;20274;-84
2021/12/21 07:06:25;;;;;;;0.00;0.00;;;-1.20;99.90;;;;;;5058462;28;20188;-84
2021/12/21 07:09:05;;;;;;;0.30;0.30;;;-1.20;99.90;;;;;;5064758;28;20256;-84
2021/12/21 07:11:41;;;;;;;0.10;0.10;;;-1.20;99.90;;;;;;5065803;28;20203;-84
2021/12/21 07:19:36;;;;;;;0.10;0.10;;;-1.00;99.90;;;;;;5066818;28;20219;-82
2021/12/21 07:22:03;;;;;;;0.27;0.17;;;-0.90;99.90;;;;;;5063217;28;20268;-82
2021/12/21 07:24:29;;;;;;;0.07;0.07;;;-1.00;99.90;;;;;;5065878;28;20662;-83
2021/12/21 07:26:54;;;;;;;0.10;0.10;;;-0.90;99.90;;;;;;5065672;28;20221;-83
2021/12/21 07:29:21;;;;;;;0.20;0.20;;;-0.80;99.90;;;;;;5085873;28;20185;-82
2021/12/21 07:31:47;;;;;;;0.33;0.20;;;-0.70;99.90;;;;;;5067432;28;20624;-81
2021/12/21 07:34:12;;;;;;;0.20;0.20;;;-0.60;99.90;;;;;;5065819;28;20185;-82
2021/12/21 07:36:42;;;;;;;0.10;0.10;;;-0.50;99.90;;;;;;5066510;28;20213;-81
2021/12/21 07:39:10;;;;;;;0.10;0.10;;;-0.50;99.90;;;;;;5065432;28;20983;-82
2021/12/21 07:41:35;;;;;;;0.10;0.10;;;-0.50;99.90;;;;;;5063717;28;20220;-82
2021/12/21 07:44:01;;;;;;;0.23;0.23;;;-0.40;99.90;;;;;;5082826;28;21882;-82
2021/12/21 07:46:27;;;;;;;0.20;0.20;;;-0.40;99.90;;;;;;5063640;28;20215;-82
2021/12/21 07:48:53;;;;;;;0.23;0.23;;;-0.30;99.90;;;;;;5064162;28;20242;-82
2021/12/21 07:51:19;;;;;;;0.10;0.10;;;-0.30;99.90;;;;;;5065249;28;20216;-82
2021/12/21 07:53:45;;;;;;;0.20;0.20;;;-0.10;99.90;;;;;;5066998;28;20177;-82
2021/12/21 07:56:11;;;;;;;0.10;0.10;;;0.00;99.90;;;;;;5062848;28;20263;-83
2021/12/21 07:58:36;;;;;;;0.10;0.10;;;0.10;99.90;;;;;;5065768;28;20193;-83
2021/12/21 08:01:05;;;;;;;1.70;1.60;;;0.20;99.90;;;;;;5060865;28;20220;-83
2021/12/21 08:03:34;;;;;;;0.00;0.00;;;0.30;99.90;;;;;;5064381;28;20190;-83
2021/12/21 08:06:05;;;;;;;0.13;0.13;;;0.40;99.90;;;;;;5064255;28;20192;-83
2021/12/21 08:08:31;;;;;;;0.30;0.30;;;0.50;99.90;;;;;;5065258;28;20192;-83
2021/12/21 08:11:17;;;;;;;0.30;0.20;;;0.50;99.90;;;;;;5064881;28;21109;-82
2021/12/21 08:13:46;;;;;;;0.33;0.33;;;0.30;99.90;;;;;;5065593;28;20177;-82
2021/12/21 08:16:12;;;;;;;0.30;0.30;;;0.10;99.90;;;;;;5081181;28;20272;-83
2021/12/21 08:18:38;;;;;;;0.10;0.10;;;0.10;99.90;;;;;;5065260;28;20282;-82
2021/12/21 08:21:04;;;;;;;0.10;0.10;;;0.10;99.90;;;;;;5066114;28;20594;-83
2021/12/21 08:23:30;;;;;;;0.10;0.10;;;0.10;99.90;;;;;;5062615;28;20575;-82
2021/12/21 08:25:56;;;;;;;1.23;0.43;;;0.10;99.90;;;;;;5066738;28;20267;-84
2021/12/21 08:28:23;;;;;;;0.10;0.10;;;0.10;99.90;;;;;;5062309;28;20197;-82
2021/12/21 08:30:50;;;;;;;0.13;0.13;;;0.20;99.90;;;;;;5061190;28;20205;-82
2021/12/21 08:33:16;;;;;;;0.00;0.00;;;0.40;99.90;;;;;;5068125;28;20184;-82
2021/12/21 08:35:42;;;;;;;0.20;0.20;;;0.60;99.90;;;;;;5063253;28;20236;-82
2021/12/21 08:38:13;;;;;;;0.03;0.03;;;0.60;99.90;;;;;;5063557;28;20196;-83
2021/12/21 08:40:40;;;;;;;0.67;0.67;;;0.50;99.90;;;;;;5065673;28;20216;-83
2021/12/21 08:43:13;;;;;;;0.30;0.30;;;0.80;99.90;;;;;;5065523;28;21021;-81
2021/12/21 08:45:41;;;;;;;0.13;0.13;;;0.90;99.90;;;;;;5064721;28;20205;-82
2021/12/21 08:48:08;;;;;;;0.60;0.50;;;1.00;99.90;;;;;;5065013;28;20178;-83
2021/12/21 08:50:35;;;;;;;0.13;0.13;;;1.20;99.90;;;;;;5064620;28;20236;-82
2021/12/21 08:53:03;;;;;;;0.07;0.07;;;1.40;99.90;;;;;;5066822;28;20617;-82
2021/12/21 08:55:29;;;;;;;1.23;0.30;;;1.70;99.90;;;;;;5062264;28;20182;-82
2021/12/21 08:57:54;;;;;;;0.10;0.10;;;1.90;99.90;;;;;;5058605;28;20185;-83
2021/12/21 09:00:20;;;;;;;0.43;0.43;;;2.20;99.90;;;;;;5058716;28;20216;-82
2021/12/21 09:02:46;;;;;;;0.63;0.53;;;2.30;99.90;;;;;;5065339;28;20182;-82
2021/12/21 09:05:18;;;;;;;0.43;0.40;;;2.40;99.90;;;;;;5064770;28;20178;-81
2021/12/21 09:07:45;;;;;;;0.10;0.10;;;2.50;99.90;;;;;;5081270;28;20216;-82
2021/12/21 09:10:13;;;;;;;0.10;0.10;;;2.60;99.90;;;;;;5066759;28;20288;-82
2021/12/21 09:12:40;;;;;;;0.97;0.63;;;2.90;99.90;;;;;;5063624;28;20190;-82
2021/12/21 09:15:08;;;;;;;0.10;0.10;;;3.00;99.90;;;;;;5063900;28;20177;-82
2021/12/21 09:17:34;;;;;;;0.10;0.10;;;3.20;99.90;;;;;;5065862;28;20607;-82
2021/12/21 09:20:00;;;;;;;2.13;1.70;;;3.40;99.90;;;;;;5065739;28;20220;-82
2021/12/21 09:22:26;;;;;;;0.10;0.10;;;3.40;99.90;;;;;;5064722;28;20186;-82
2021/12/21 09:24:51;;;;;;;0.43;0.30;;;3.50;99.90;;;;;;5066698;28;20191;-82
2021/12/21 09:27:18;;;;;;;0.30;0.30;;;3.60;99.90;;;;;;5060639;28;20307;-82
2021/12/21 09:29:44;;;;;;;0.20;0.20;;;3.70;99.90;;;;;;5058094;28;20237;-82
2021/12/21 09:32:13;;;;;;;1.10;0.73;;;3.70;99.90;;;;;;5068519;28;20182;-82
2021/12/21 09:34:40;;;;;;;0.10;0.10;;;3.80;99.90;;;;;;5064572;28;20189;-82
2021/12/21 09:37:06;;;;;;;0.20;0.20;;;3.90;99.90;;;;;;5066842;28;20263;-82
2021/12/21 09:39:32;;;;;;;0.40;0.20;;;4.10;99.90;;;;;;5056348;28;20214;-81
2021/12/21 09:41:58;;;;;;;0.40;0.33;;;4.20;99.90;;;;;;5064905;28;20177;-82
2021/12/21 09:44:24;;;;;;;0.40;0.30;;;4.20;99.90;;;;;;5057946;28;20188;-82
2021/12/21 09:46:50;;;;;;;2.20;2.10;;;4.30;99.90;;;;;;5065145;28;20274;-83
2021/12/21 09:49:15;;;;;;;0.37;0.37;;;4.40;99.90;;;;;;5065557;28;20334;-82
2021/12/21 09:51:41;;;;;;;3.00;0.93;;;3.80;99.90;;;;;;5061250;28;20202;-82
2021/12/21 09:54:08;;;;;;;0.10;0.10;;;4.10;99.90;;;;;;5061636;28;20271;-82
2021/12/21 09:56:34;;;;;;;0.30;0.23;;;4.30;99.90;;;;;;5066929;28;20273;-82
2021/12/21 09:59:00;;;;;;;0.50;0.50;;;4.40;99.90;;;;;;5062125;28;20425;-82
2021/12/21 10:01:26;;;;;;;0.10;0.10;;;4.30;99.90;;;;;;5065395;28;20199;-82
2021/12/21 10:03:52;;;;;;;0.60;0.60;;;4.20;99.90;;;;;;5066994;28;20318;-82
2021/12/21 10:06:17;;;;;;;0.20;0.20;;;3.60;99.90;;;;;;5063246;28;20185;-82
2021/12/21 10:08:43;;;;;;;0.10;0.10;;;3.80;99.90;;;;;;5062159;28;20533;-82
2021/12/21 10:11:19;;;;;;;0.07;0.07;;;4.10;99.90;;;;;;5059034;28;20215;-82
2021/12/21 10:13:45;;;;;;;0.00;0.00;;;4.40;99.90;;;;;;5064481;28;20243;-82
2021/12/21 10:16:10;;;;;;;0.00;0.00;;;4.50;99.90;;;;;;5059367;28;20193;-82
2021/12/21 10:18:41;;;;;;;0.47;0.47;;;4.70;99.90;;;;;;5060719;28;20195;-82
2021/12/21 10:21:08;;;;;;;0.20;0.20;;;4.30;99.90;;;;;;5062695;28;20712;-82
2021/12/21 10:23:40;;;;;;;0.10;0.10;;;4.60;99.90;;;;;;5060828;28;20179;-82
2021/12/21 10:26:10;;;;;;;0.10;0.10;;;4.70;99.90;;;;;;5064842;28;20208;-82
2021/12/21 10:28:40;;;;;;;0.20;0.20;;;4.70;99.90;;;;;;5066961;28;20555;-82
2021/12/21 10:31:14;;;;;;;0.17;0.17;;;4.80;99.90;;;;;;5066303;28;20411;-82
2021/12/21 10:33:45;;;;;;;0.10;0.10;;;5.00;99.90;;;;;;5063210;28;20236;-82
2021/12/21 10:36:12;;;;;;;0.20;0.20;;;5.00;99.90;;;;;;5062895;28;20191;-82
2021/12/21 10:38:54;;;;;;;0.10;0.10;;;4.70;99.90;;;;;;5067664;28;20212;-82
2021/12/21 10:41:44;;;;;;;0.50;0.50;;;4.70;99.90;;;;;;5068373;28;20852;-82
2021/12/21 10:44:15;;;;;;;0.20;0.20;;;4.60;99.90;;;;;;5068884;28;20165;-82
2021/12/21 10:46:47;;;;;;;0.10;0.10;;;4.50;99.90;;;;;;5066234;28;20196;-83
2021/12/21 10:49:25;;;;;;;0.10;0.10;;;4.60;99.90;;;;;;5069488;28;20258;-82
2021/12/21 10:52:07;;;;;;;0.10;0.10;;;5.00;99.90;;;;;;5062191;28;20548;-82
2021/12/21 10:54:42;;;;;;;0.23;0.23;;;5.20;99.90;;;;;;5063570;28;20597;-82
2021/12/21 10:57:20;;;;;;;0.13;0.13;;;5.00;99.90;;;;;;5067590;28;20653;-82
2021/12/21 10:59:48;;;;;;;0.33;0.33;;;4.70;99.90;;;;;;5067134;28;20310;-82
2021/12/21 11:02:18;;;;;;;0.50;0.50;;;5.10;99.90;;;;;;5067125;28;20207;-83
2021/12/21 11:04:55;;;;;;;0.10;0.10;;;5.40;99.90;;;;;;5065531;28;20246;-82
2021/12/21 11:07:32;;;;;;;0.10;0.10;;;5.30;99.90;;;;;;5064492;28;20184;-82
2021/12/21 11:10:12;;;;;;;0.10;0.10;;;5.20;99.90;;;;;;5065474;28;20208;-83
2021/12/21 11:12:47;;;;;;;0.20;0.10;;;5.20;99.90;;;;;;5061293;28;20254;-82
2021/12/21 11:15:17;;;;;;;0.10;0.10;;;5.40;99.90;;;;;;5064737;28;20657;-83
2021/12/21 11:17:43;;;;;;;0.20;0.20;;;5.20;99.90;;;;;;5067450;28;20181;-82
2021/12/21 11:20:11;;;;;;;0.10;0.10;;;5.10;99.90;;;;;;5062544;28;20259;-82
2021/12/21 11:22:39;;;;;;;0.10;0.10;;;5.40;99.90;;;;;;5060265;28;20185;-82
2021/12/21 11:25:06;;;;;;;0.77;0.40;;;5.50;99.90;;;;;;5066137;28;20240;-81
2021/12/21 11:27:34;;;;;;;0.23;0.23;;;5.60;99.90;;;;;;5062816;28;21081;-83
2021/12/21 11:30:02;;;;;;;0.20;0.20;;;5.80;99.90;;;;;;5064480;28;20267;-82
2021/12/21 11:32:31;;;;;;;0.10;0.10;;;5.80;99.90;;;;;;5060729;28;20197;-81
2021/12/21 11:37:46;;;;;;;0.37;0.10;;;5.90;99.90;;;;;;5065518;28;20200;-82
2021/12/21 11:40:15;;;;;;;0.30;0.30;;;5.10;99.90;;;;;;5064101;28;20217;-81
2021/12/21 11:43:10;;;;;;;0.10;0.10;;;5.00;99.90;;;;;;5064889;28;20208;-82
2021/12/21 11:45:45;;;;;;;0.20;0.20;;;5.20;99.90;;;;;;5065936;28;20189;-81
2021/12/21 11:48:10;;;;;;;0.17;0.17;;;5.20;99.90;;;;;;5067379;28;20215;-81
2021/12/21 11:50:39;;;;;;;0.27;0.27;;;4.90;99.90;;;;;;5067020;28;20240;-81
2021/12/21 11:53:07;;;;;;;0.10;0.10;;;4.80;99.90;;;;;;5068410;28;20199;-81
2021/12/21 11:55:35;;;;;;;0.10;0.10;;;5.10;99.90;;;;;;5068358;28;20312;-81
2021/12/21 11:58:21;;;;;;;0.20;0.20;;;5.20;99.90;;;;;;5069125;28;20199;-81
2021/12/21 12:00:56;;;;;;;0.13;0.13;;;4.90;99.90;;;;;;5068295;28;20727;-81
2021/12/21 12:03:24;;;;;;;0.40;0.40;;;5.10;99.90;;;;;;5066997;28;20217;-82
2021/12/21 12:05:52;;;;;;;0.07;0.07;;;5.10;99.90;;;;;;5061115;28;20239;-81
2021/12/21 12:08:18;;;;;;;0.30;0.30;;;5.00;99.90;;;;;;5065284;28;20192;-81
2021/12/21 12:10:56;;;;;;;0.30;0.30;;;4.70;99.90;;;;;;5065036;28;20269;-81
2021/12/21 12:13:32;;;;;;;0.10;0.10;;;4.50;99.90;;;;;;5061389;28;20228;-81
2021/12/21 12:16:08;;;;;;;0.10;0.10;;;4.80;99.90;;;;;;5067179;28;20542;-81
2021/12/21 12:18:48;;;;;;;0.40;0.40;;;4.60;99.90;;;;;;5067427;28;20244;-81
2021/12/21 12:21:21;;;;;;;0.20;0.20;;;4.60;99.90;;;;;;5068018;28;20645;-81
2021/12/21 12:23:51;;;;;;;0.20;0.20;;;4.70;99.90;;;;;;5065810;28;20187;-81
2021/12/21 12:26:33;;;;;;;0.30;0.30;;;5.00;99.90;;;;;;5059289;28;20194;-82
2021/12/21 12:29:20;;;;;;;0.47;0.47;;;4.90;99.90;;;;;;5065732;28;20638;-80
2021/12/21 12:32:05;;;;;;;0.10;0.10;;;4.30;99.90;;;;;;5068456;28;20295;-81
2021/12/21 12:34:34;;;;;;;0.67;0.67;;;4.80;99.90;;;;;;5063506;28;20186;-80
2021/12/21 12:37:12;;;;;;;0.00;0.00;;;4.90;99.90;;;;;;5071381;28;20184;-81
2021/12/21 12:39:43;;;;;;;0.10;0.10;;;4.60;99.90;;;;;;5072409;28;20695;-81
2021/12/21 12:42:29;;;;;;;0.00;0.00;;;4.60;99.90;;;;;;5071314;28;20182;-81
2021/12/21 12:45:15;;;;;;;0.00;0.00;;;4.80;99.90;;;;;;5065989;28;20197;-80
2021/12/21 12:47:46;;;;;;;1.20;0.43;;;4.80;99.90;;;;;;5061798;28;20275;-81
2021/12/21 12:50:29;;;;;;;0.00;0.00;;;4.60;99.90;;;;;;5068153;28;20209;-81
2021/12/21 12:52:58;;;;;;;0.40;0.40;;;4.90;99.90;;;;;;5066598;28;20242;-81
2021/12/21 12:55:35;;;;;;;0.10;0.10;;;4.90;99.90;;;;;;5067342;28;20173;-81
2021/12/21 12:58:04;;;;;;;0.20;0.20;;;5.00;99.90;;;;;;5065022;28;20260;-80
2021/12/21 13:00:32;;;;;;;0.13;0.13;;;5.10;99.90;;;;;;5066793;28;20220;-80
2021/12/21 13:03:07;;;;;;;0.10;0.10;;;4.90;99.90;;;;;;5066363;28;20196;-81
2021/12/21 13:05:40;;;;;;;0.13;0.13;;;4.90;99.90;;;;;;5065315;28;20192;-81
2021/12/21 13:08:17;;;;;;;0.10;0.10;;;4.80;99.90;;;;;;5067239;28;20173;-80
2021/12/21 13:10:49;;;;;;;0.77;0.30;;;5.00;99.90;;;;;;5065688;28;20321;-81
2021/12/21 13:13:16;;;;;;;0.87;0.87;;;4.70;99.90;;;;;;5063905;28;20803;-81
2021/12/21 13:15:44;;;;;;;0.20;0.20;;;4.30;99.90;;;;;;5067567;28;20279;-81
2021/12/21 13:18:17;;;;;;;0.07;0.07;;;4.60;99.90;;;;;;5066612;28;20555;-81
2021/12/21 13:20:44;;;;;;;1.00;0.57;;;4.50;99.90;;;;;;5067485;28;20220;-81
2021/12/21 13:23:13;;;;;;;0.10;0.10;;;4.60;99.90;;;;;;5068318;28;20188;-81
2021/12/21 13:25:40;;;;;;;0.10;0.10;;;4.60;99.90;;;;;;5065984;28;20272;-80
2021/12/21 13:28:12;;;;;;;0.37;0.37;;;4.80;99.90;;;;;;5067377;28;20191;-81
2021/12/21 13:30:46;;;;;;;0.07;0.07;;;4.80;99.90;;;;;;5068339;28;20209;-81
2021/12/21 13:33:21;;;;;;;0.23;0.23;;;4.90;99.90;;;;;;5066699;28;20200;-81
2021/12/21 13:35:48;;;;;;;0.20;0.10;;;5.00;99.90;;;;;;5066638;28;20264;-81
2021/12/21 13:38:15;;;;;;;0.10;0.10;;;4.80;99.90;;;;;;5060525;28;20192;-81
2021/12/21 13:40:40;;;;;;;0.37;0.37;;;5.00;99.90;;;;;;5065822;28;20212;-81
2021/12/21 13:43:13;;;;;;;0.20;0.20;;;5.20;99.90;;;;;;5066492;28;20229;-81
2021/12/21 13:45:40;;;;;;;0.10;0.10;;;5.40;99.90;;;;;;5066285;28;20284;-81
2021/12/21 13:48:15;;;;;;;0.20;0.20;;;5.40;99.90;;;;;;5063220;28;20212;-81
2021/12/21 13:50:41;;;;;;;0.10;0.10;;;5.50;99.90;;;;;;5055196;28;20215;-81
2021/12/21 13:53:06;;;;;;;0.27;0.27;;;5.50;99.90;;;;;;5062254;28;20189;-81
2021/12/21 13:55:36;;;;;;;0.10;0.10;;;5.50;99.90;;;;;;5066017;28;20532;-82
2021/12/21 13:58:08;;;;;;;0.10;0.10;;;5.30;99.90;;;;;;5062893;28;20196;-81
2021/12/21 14:00:37;;;;;;;0.10;0.10;;;5.00;99.90;;;;;;5063197;28;20941;-82